createdAt,value
2022-09-13T00:00:22.021Z,18.67
2022-09-13T00:10:27.200Z,18.67
2022-09-13T00:20:30.183Z,18.59
2022-09-13T00:30:34.745Z,18.53
2022-09-13T00:40:38.984Z,18.47
2022-09-13T00:50:46.899Z,18.47
2022-09-13T01:00:50.634Z,18.50
2022-09-13T01:10:58.194Z,18.50
2022-09-13T01:21:37.318Z,18.58
2022-09-13T01:31:47.967Z,18.51
2022-09-13T01:42:05.222Z,18.55
2022-09-13T01:52:17.469Z,18.51
2022-09-13T02:02:25.222Z,18.35
2022-09-13T02:12:32.875Z,18.33
2022-09-13T02:22:41.983Z,18.37
2022-09-13T02:32:51.188Z,18.39
2022-09-13T02:42:59.901Z,18.44
2022-09-13T02:53:12.928Z,18.51
2022-09-13T03:03:17.435Z,18.58
2022-09-13T03:13:46.675Z,18.61
2022-09-13T03:24:01.727Z,18.64
2022-09-13T03:34:11.832Z,18.66
2022-09-13T03:44:17.103Z,18.62
2022-09-13T03:54:23.642Z,18.66
2022-09-13T04:04:26.615Z,18.61
2022-09-13T04:14:30.923Z,18.56
2022-09-13T04:24:33.630Z,18.59
2022-09-13T04:34:38.141Z,18.56
2022-09-13T04:44:40.812Z,18.30
2022-09-13T04:54:45.029Z,18.33
2022-09-13T05:04:47.680Z,18.43
2022-09-13T05:14:51.672Z,18.48
2022-09-13T05:24:54.448Z,18.56
2022-09-13T05:34:58.483Z,18.61
2022-09-13T05:45:01.402Z,18.59
2022-09-13T05:55:05.995Z,18.64
2022-09-13T06:05:10.599Z,18.65
2022-09-13T06:15:15.683Z,18.70
2022-09-13T06:25:18.397Z,18.64
2022-09-13T06:35:22.429Z,18.59
2022-09-13T06:45:25.101Z,18.58
2022-09-13T06:55:29.058Z,18.21
2022-09-13T07:05:31.862Z,18.23
2022-09-13T07:15:38.879Z,18.30
2022-09-13T07:25:41.596Z,18.57
2022-09-13T07:35:45.603Z,18.88
2022-09-13T07:45:48.278Z,19.09
2022-09-13T07:55:52.300Z,19.29
2022-09-13T08:05:54.951Z,19.36
2022-09-13T08:16:02.485Z,19.89
2022-09-13T08:26:06.386Z,20.03
2022-09-13T08:36:10.445Z,20.02
2022-09-13T08:46:22.267Z,20.12
2022-09-13T08:56:35.022Z,20.68
2022-09-13T09:06:37.979Z,20.85
2022-09-13T09:16:48.102Z,21.20
2022-09-13T09:26:51.109Z,20.42
2022-09-13T09:37:01.519Z,21.18
2022-09-13T09:47:08.475Z,21.47
2022-09-13T09:57:13.283Z,21.44
2022-09-13T10:07:27.663Z,21.46
2022-09-13T10:17:31.714Z,21.65
2022-09-13T10:27:38.841Z,21.74
2022-09-13T10:37:45.168Z,22.04
2022-09-13T10:47:51.353Z,22.56
2022-09-13T10:57:56.947Z,22.37
2022-09-13T11:08:26.472Z,22.72
2022-09-13T11:18:51.285Z,24.08
2022-09-13T11:29:06.584Z,29.49
2022-09-13T11:39:23.839Z,29.94
2022-09-13T11:49:46.714Z,28.68
2022-09-13T11:59:55.496Z,31.86
2022-09-13T12:10:03.993Z,33.92
2022-09-13T12:20:16.573Z,36.53
2022-09-13T12:30:21.245Z,34.85
2022-09-13T12:40:50.515Z,33.88
2022-09-13T12:51:07.018Z,29.32
2022-09-13T13:01:16.004Z,25.57
2022-09-13T13:11:23.838Z,24.94
2022-09-13T13:21:37.779Z,23.86
2022-09-13T13:31:46.798Z,23.62
2022-09-13T13:41:56.386Z,23.22
2022-09-13T13:52:32.366Z,22.93
2022-09-13T14:02:42.226Z,22.90
2022-09-13T14:12:57.537Z,22.31
2022-09-13T14:23:18.324Z,22.38
2022-09-13T14:33:30.824Z,22.51
2022-09-13T14:43:34.829Z,22.02
2022-09-13T14:53:37.904Z,21.85
2022-09-13T15:03:44.092Z,21.75
2022-09-13T15:13:46.846Z,21.13
2022-09-13T15:23:52.166Z,20.87
2022-09-13T15:34:13.746Z,20.91
2022-09-13T15:44:17.751Z,20.94
2022-09-13T15:54:22.730Z,20.79
2022-09-13T16:04:26.706Z,20.41
2022-09-13T16:14:29.453Z,20.29
2022-09-13T16:24:33.976Z,20.50
2022-09-13T16:34:36.872Z,20.13
2022-09-13T16:44:40.970Z,19.96
2022-09-13T16:54:46.337Z,19.88
2022-09-13T17:04:50.398Z,19.56
2022-09-13T17:14:54.957Z,19.33
2022-09-13T17:24:59.076Z,18.97
2022-09-13T17:35:01.782Z,18.71
2022-09-13T17:45:07.234Z,18.53
2022-09-13T17:55:10.458Z,18.43
2022-09-13T18:05:14.537Z,18.11
2022-09-13T18:15:17.297Z,17.97
2022-09-13T18:25:23.467Z,17.88
2022-09-13T18:35:26.471Z,17.63
2022-09-13T18:45:31.207Z,17.49
2022-09-13T18:55:39.787Z,17.28
2022-09-13T19:05:44.140Z,17.07
2022-09-13T19:15:47.260Z,17.00
2022-09-13T19:25:51.393Z,16.87
2022-09-13T19:35:54.126Z,16.94
2022-09-13T19:46:00.420Z,16.92
2022-09-13T19:56:04.856Z,16.78
2022-09-13T20:06:11.281Z,16.47
2022-09-13T20:16:18.339Z,16.33
2022-09-13T20:26:25.499Z,16.30
2022-09-13T20:36:30.493Z,16.24
2022-09-13T20:46:34.632Z,16.12
2022-09-13T20:56:37.442Z,15.99
2022-09-13T21:07:03.637Z,15.77
2022-09-13T21:17:07.826Z,15.78
2022-09-13T21:27:12.223Z,15.65
2022-09-13T21:37:15.658Z,15.56
2022-09-13T21:47:19.880Z,15.31
2022-09-13T21:57:22.905Z,15.28
2022-09-13T22:07:27.012Z,15.25
2022-09-13T22:17:29.926Z,15.14
2022-09-13T22:27:34.043Z,15.09
2022-09-13T22:37:36.755Z,15.02
2022-09-13T22:47:40.758Z,15.02
2022-09-13T22:57:43.438Z,15.15
2022-09-13T23:07:47.559Z,15.11
2022-09-13T23:17:50.215Z,14.96
2022-09-13T23:27:54.363Z,14.85
2022-09-13T23:37:57.082Z,14.86
2022-09-13T23:48:01.137Z,14.85
2022-09-13T23:58:03.990Z,14.72
